createdAt,value
2018-03-11T00:00:02.743Z,86.30
2018-03-11T00:02:30.840Z,86.30
2018-03-11T00:04:59.015Z,86.20
2018-03-11T00:07:27.195Z,86.40
2018-03-11T00:09:55.547Z,86.50
2018-03-11T00:12:23.714Z,86.60
2018-03-11T00:14:51.976Z,86.60
2018-03-11T00:17:20.180Z,86.70
2018-03-11T00:19:48.409Z,86.50
2018-03-11T00:22:16.560Z,86.50
2018-03-11T00:24:44.656Z,86.50
2018-03-11T00:27:12.790Z,86.20
2018-03-11T00:29:40.890Z,86.20
2018-03-11T00:32:08.991Z,86.50
2018-03-11T00:34:37.076Z,86.50
2018-03-11T00:37:05.162Z,86.70
2018-03-11T00:39:33.264Z,86.50
2018-03-11T00:42:01.372Z,86.50
2018-03-11T00:44:30.184Z,86.50
2018-03-11T00:46:58.281Z,86.40
2018-03-11T00:49:26.468Z,86.20
2018-03-11T00:51:54.726Z,86.00
2018-03-11T00:54:22.901Z,85.90
2018-03-11T00:56:51.813Z,85.80
2018-03-11T00:59:19.922Z,85.70
2018-03-11T01:01:48.796Z,85.80
2018-03-11T01:04:16.873Z,85.60
2018-03-11T01:06:44.975Z,85.90
2018-03-11T01:09:13.061Z,86.10
2018-03-11T01:11:41.163Z,86.10
2018-03-11T01:14:09.259Z,86.20
2018-03-11T01:16:37.373Z,86.20
2018-03-11T01:19:06.257Z,86.20
2018-03-11T01:21:34.341Z,86.20
2018-03-11T01:24:03.266Z,86.40
2018-03-11T01:26:31.360Z,86.30
2018-03-11T01:28:59.459Z,86.30
2018-03-11T01:31:27.569Z,86.20
2018-03-11T01:33:55.671Z,86.20
2018-03-11T01:36:23.783Z,86.10
2018-03-11T01:38:52.598Z,86.00
2018-03-11T01:41:20.702Z,85.90
2018-03-11T01:43:48.872Z,85.80
2018-03-11T01:46:16.999Z,85.80
2018-03-11T01:48:45.113Z,85.80
2018-03-11T01:51:13.241Z,85.80
2018-03-11T01:53:42.096Z,85.90
2018-03-11T01:56:10.204Z,85.80
2018-03-11T01:58:39.096Z,85.80
2018-03-11T02:01:07.194Z,85.70
2018-03-11T02:03:35.292Z,85.90
2018-03-11T02:06:03.414Z,86.10
2018-03-11T02:08:31.510Z,86.10
2018-03-11T02:10:59.596Z,86.20
2018-03-11T02:13:27.741Z,86.20
2018-03-11T02:15:56.652Z,86.30
2018-03-11T02:18:24.747Z,86.30
2018-03-11T02:20:52.820Z,86.40
2018-03-11T02:23:20.902Z,86.40
2018-03-11T02:25:49.009Z,86.50
2018-03-11T02:28:17.097Z,86.40
2018-03-11T02:30:45.266Z,86.40
2018-03-11T02:33:13.381Z,86.40
2018-03-11T02:35:41.509Z,86.30
2018-03-11T02:38:09.602Z,86.40
2018-03-11T02:40:37.685Z,86.40
2018-03-11T02:43:05.952Z,86.40
2018-03-11T02:45:34.039Z,86.40
2018-03-11T02:48:02.177Z,86.50
2018-03-11T02:50:30.258Z,86.50
2018-03-11T02:52:58.835Z,86.40
2018-03-11T02:55:27.012Z,86.50
2018-03-11T02:57:55.160Z,86.80
2018-03-11T03:00:23.286Z,87.10
2018-03-11T03:02:51.876Z,86.90
2018-03-11T03:05:20.045Z,87.10
2018-03-11T03:07:48.254Z,87.40
2018-03-11T03:10:16.358Z,87.40
2018-03-11T03:12:44.455Z,87.30
2018-03-11T03:15:12.561Z,87.20
2018-03-11T03:17:40.666Z,87.20
2018-03-11T03:20:08.776Z,87.20
2018-03-11T03:22:36.889Z,87.20
2018-03-11T03:25:05.020Z,87.20
2018-03-11T03:27:33.257Z,87.10
2018-03-11T03:30:01.499Z,86.90
2018-03-11T03:32:29.690Z,86.80
2018-03-11T03:34:57.795Z,86.70
2018-03-11T03:37:25.964Z,86.60
2018-03-11T03:39:54.535Z,86.40
2018-03-11T03:42:22.761Z,86.20
2018-03-11T03:44:50.920Z,86.20
2018-03-11T03:47:19.024Z,85.90
2018-03-11T03:49:47.154Z,85.80
2018-03-11T03:52:15.266Z,85.90
2018-03-11T03:54:43.399Z,85.90
2018-03-11T03:57:11.692Z,86.10
2018-03-11T03:59:39.795Z,86.20
2018-03-11T04:02:07.949Z,86.20
2018-03-11T04:04:36.284Z,85.90
2018-03-11T04:07:04.380Z,86.00
2018-03-11T04:09:32.523Z,86.00
2018-03-11T04:12:00.759Z,86.00
2018-03-11T04:14:29.025Z,86.80
2018-03-11T04:16:57.225Z,86.10
2018-03-11T04:19:25.410Z,86.20
2018-03-11T04:21:53.537Z,86.10
2018-03-11T04:24:21.716Z,86.50
2018-03-11T04:26:49.839Z,86.50
2018-03-11T04:29:18.034Z,86.70
2018-03-11T04:31:46.136Z,86.80
2018-03-11T04:34:14.221Z,86.60
2018-03-11T04:36:42.305Z,86.80
2018-03-11T04:39:10.410Z,86.70
2018-03-11T04:41:38.534Z,86.70
2018-03-11T04:44:06.660Z,86.70
2018-03-11T04:46:34.770Z,86.50
2018-03-11T04:49:02.878Z,86.40
2018-03-11T04:51:30.960Z,86.50
2018-03-11T04:53:59.066Z,86.40
2018-03-11T04:56:27.254Z,86.50
2018-03-11T04:58:55.440Z,86.40
2018-03-11T05:01:23.534Z,86.30
2018-03-11T05:03:51.609Z,86.30
2018-03-11T05:06:19.713Z,86.20
2018-03-11T05:08:47.835Z,86.10
2018-03-11T05:11:15.987Z,85.90
2018-03-11T05:13:44.077Z,85.90
2018-03-11T05:16:12.215Z,85.90
2018-03-11T05:18:40.493Z,85.60
2018-03-11T05:21:08.911Z,85.60
2018-03-11T05:23:37.073Z,85.70
2018-03-11T05:26:05.226Z,85.40
2018-03-11T05:28:33.509Z,85.20
2018-03-11T05:31:01.721Z,85.10
2018-03-11T05:33:29.859Z,85.10
2018-03-11T05:35:57.960Z,85.00
2018-03-11T05:38:26.227Z,85.00
2018-03-11T05:40:54.339Z,85.10
2018-03-11T05:43:23.205Z,85.00
2018-03-11T05:45:51.721Z,85.00
2018-03-11T05:48:19.808Z,85.00
2018-03-11T05:50:47.903Z,85.00
2018-03-11T05:53:16.010Z,84.90
2018-03-11T05:55:44.144Z,85.00
2018-03-11T05:58:12.293Z,84.90
2018-03-11T06:00:41.152Z,85.00
2018-03-11T06:03:09.268Z,85.00
2018-03-11T06:05:37.364Z,85.00
2018-03-11T06:08:05.455Z,85.00
2018-03-11T06:10:33.740Z,85.20
2018-03-11T06:13:01.840Z,85.30
2018-03-11T06:15:29.929Z,85.40
2018-03-11T06:17:58.046Z,85.60
2018-03-11T06:20:26.205Z,85.60
2018-03-11T06:22:54.301Z,85.80
2018-03-11T06:25:22.415Z,85.90
2018-03-11T06:27:50.497Z,85.90
2018-03-11T06:30:18.595Z,85.90
2018-03-11T06:32:46.710Z,85.90
2018-03-11T06:35:14.801Z,86.10
2018-03-11T06:37:42.915Z,86.40
2018-03-11T06:40:11.003Z,86.50
2018-03-11T06:42:39.118Z,86.70
2018-03-11T06:45:07.219Z,86.80
2018-03-11T06:47:35.395Z,86.80
2018-03-11T06:50:03.741Z,86.80
2018-03-11T06:52:31.874Z,86.90
2018-03-11T06:55:00.801Z,87.00
2018-03-11T06:57:28.889Z,86.90
2018-03-11T06:59:56.987Z,87.00
2018-03-11T07:02:25.083Z,87.10
2018-03-11T07:04:53.195Z,87.20
2018-03-11T07:07:21.412Z,87.30
2018-03-11T07:09:49.631Z,87.30
2018-03-11T07:12:17.736Z,87.30
2018-03-11T07:14:45.841Z,87.40
2018-03-11T07:17:13.980Z,87.50
2018-03-11T07:19:42.064Z,87.50
2018-03-11T07:22:14.008Z,87.60
2018-03-11T07:24:42.117Z,87.70
2018-03-11T07:27:10.241Z,87.70
2018-03-11T07:29:39.099Z,87.80
2018-03-11T07:32:07.964Z,87.80
2018-03-11T07:34:36.083Z,87.70
2018-03-11T07:37:04.212Z,87.70
2018-03-11T07:39:32.315Z,87.80
2018-03-11T07:42:00.400Z,87.80
2018-03-11T07:44:28.521Z,87.90
2018-03-11T07:46:56.627Z,87.90
2018-03-11T07:49:25.482Z,88.00
2018-03-11T07:51:53.574Z,88.00
2018-03-11T07:54:21.652Z,87.90
2018-03-11T07:56:49.759Z,88.00
2018-03-11T07:59:17.902Z,87.90
2018-03-11T08:01:46.045Z,88.00
2018-03-11T08:04:14.126Z,85.00
2018-03-11T08:06:42.285Z,85.40
2018-03-11T08:09:10.507Z,86.00
2018-03-11T08:11:39.368Z,86.50
2018-03-11T08:14:07.603Z,86.50
2018-03-11T08:16:35.735Z,85.40
2018-03-11T08:19:04.604Z,85.90
2018-03-11T08:21:32.780Z,85.90
2018-03-11T08:24:00.979Z,85.90
2018-03-11T08:26:29.171Z,86.00
2018-03-11T08:28:57.299Z,85.90
2018-03-11T08:31:25.391Z,85.90
2018-03-11T08:33:53.496Z,85.90
2018-03-11T08:36:21.617Z,85.90
2018-03-11T08:38:49.827Z,85.80
2018-03-11T08:41:17.985Z,85.70
2018-03-11T08:43:46.085Z,85.70
2018-03-11T08:46:14.449Z,85.60
2018-03-11T08:48:42.560Z,85.70
2018-03-11T08:51:10.660Z,85.80
2018-03-11T08:53:38.766Z,85.80
2018-03-11T08:56:06.874Z,85.90
2018-03-11T08:58:34.980Z,85.90
2018-03-11T09:01:03.072Z,85.80
2018-03-11T09:03:31.179Z,85.80
2018-03-11T09:05:59.274Z,85.80
2018-03-11T09:08:27.394Z,85.80
2018-03-11T09:10:55.517Z,85.70
2018-03-11T09:13:23.616Z,85.70
2018-03-11T09:15:52.496Z,85.50
2018-03-11T09:18:20.587Z,85.40
2018-03-11T09:20:49.469Z,85.30
2018-03-11T09:23:17.612Z,85.20
2018-03-11T09:25:45.740Z,85.30
2018-03-11T09:28:13.899Z,85.20
2018-03-11T09:30:42.033Z,85.30
2018-03-11T09:33:10.150Z,85.20
2018-03-11T09:35:38.253Z,85.00
2018-03-11T09:38:06.392Z,85.00
2018-03-11T09:40:34.489Z,85.10
2018-03-11T09:43:02.591Z,85.20
2018-03-11T09:45:30.718Z,85.10
2018-03-11T09:47:58.840Z,85.00
2018-03-11T09:50:26.940Z,85.00
2018-03-11T09:52:55.812Z,84.90
2018-03-11T09:55:23.933Z,84.80
2018-03-11T09:57:52.034Z,84.60
2018-03-11T10:00:20.455Z,84.50
2018-03-11T10:02:49.350Z,84.40
2018-03-11T10:05:17.478Z,84.60
2018-03-11T10:07:45.568Z,84.60
2018-03-11T10:10:13.684Z,84.50
2018-03-11T10:12:41.886Z,84.40
2018-03-11T10:15:10.089Z,84.50
2018-03-11T10:30:34.197Z,84.30
2018-03-11T10:33:02.306Z,87.70
2018-03-11T10:35:30.442Z,87.60
2018-03-11T10:37:58.548Z,87.50
2018-03-11T10:40:26.750Z,87.00
2018-03-11T10:42:54.958Z,86.50
2018-03-11T10:45:23.170Z,86.10
2018-03-11T10:47:51.281Z,85.70
2018-03-11T10:50:19.398Z,85.30
2018-03-11T10:52:47.509Z,85.10
2018-03-11T10:55:15.609Z,84.80
2018-03-11T10:57:43.710Z,84.60
2018-03-11T11:00:11.809Z,84.30
2018-03-11T11:02:41.119Z,84.10
2018-03-11T11:05:11.199Z,83.90
2018-03-11T11:07:39.341Z,83.60
2018-03-11T11:10:07.433Z,83.30
2018-03-11T11:12:35.570Z,83.10
2018-03-11T11:15:03.679Z,82.90
2018-03-11T11:17:31.800Z,82.90
2018-03-11T11:19:59.898Z,82.80
2018-03-11T11:22:27.993Z,82.70
2018-03-11T11:24:56.130Z,82.70
2018-03-11T11:27:24.498Z,83.10
2018-03-11T11:29:52.610Z,83.40
2018-03-11T11:32:21.475Z,83.10
2018-03-11T11:34:49.583Z,83.10
2018-03-11T11:37:17.710Z,82.90
2018-03-11T11:39:45.914Z,82.80
2018-03-11T11:42:14.792Z,82.10
2018-03-11T11:44:42.959Z,81.90
2018-03-11T11:47:11.079Z,81.90
2018-03-11T11:49:39.809Z,81.50
2018-03-11T11:52:07.918Z,81.30
2018-03-11T11:54:36.106Z,81.30
2018-03-11T11:57:05.148Z,81.10
2018-03-11T11:59:33.252Z,80.90
2018-03-11T12:02:01.380Z,80.70
2018-03-11T12:04:29.507Z,80.40
2018-03-11T12:06:57.614Z,80.30
2018-03-11T12:09:25.747Z,80.10
2018-03-11T12:11:53.879Z,80.00
2018-03-11T12:14:22.052Z,79.80
2018-03-11T12:16:50.608Z,79.40
2018-03-11T12:19:18.752Z,79.50
2018-03-11T12:21:46.864Z,79.30
2018-03-11T12:24:15.097Z,79.20
2018-03-11T12:26:43.217Z,79.10
2018-03-11T12:29:11.373Z,79.00
2018-03-11T12:31:39.483Z,78.80
2018-03-11T12:34:07.625Z,78.70
2018-03-11T12:36:35.741Z,78.60
2018-03-11T12:39:03.849Z,78.50
2018-03-11T12:41:32.002Z,78.30
2018-03-11T12:44:00.873Z,77.90
2018-03-11T12:46:29.000Z,77.80
2018-03-11T12:48:57.160Z,77.40
2018-03-11T12:51:25.313Z,77.40
2018-03-11T12:53:53.407Z,77.10
2018-03-11T12:56:21.502Z,76.80
2018-03-11T12:58:49.629Z,76.50
2018-03-11T13:01:17.816Z,76.50
2018-03-11T13:03:46.108Z,76.30
2018-03-11T13:06:14.305Z,76.30
2018-03-11T13:08:42.502Z,76.30
2018-03-11T13:11:10.858Z,76.20
2018-03-11T13:13:38.989Z,76.10
2018-03-11T13:16:10.916Z,75.80
2018-03-11T13:18:39.811Z,75.80
2018-03-11T13:21:09.849Z,75.70
2018-03-11T13:23:38.924Z,75.60
2018-03-11T13:26:07.201Z,75.60
2018-03-11T13:28:47.888Z,75.60
2018-03-11T13:31:16.000Z,75.60
2018-03-11T13:34:01.751Z,75.70
2018-03-11T13:36:30.482Z,75.60
2018-03-11T13:39:16.297Z,75.80
2018-03-11T13:41:44.398Z,75.70
2018-03-11T13:44:12.584Z,75.90
2018-03-11T13:47:10.322Z,75.60
2018-03-11T13:49:38.504Z,75.40
2018-03-11T13:52:24.254Z,75.90
2018-03-11T13:54:52.415Z,75.60
2018-03-11T14:00:50.903Z,74.00
2018-03-11T14:03:19.717Z,76.60
2018-03-11T14:05:47.870Z,76.30
2018-03-11T14:08:16.013Z,76.20
2018-03-11T14:10:44.296Z,76.00
2018-03-11T14:13:12.501Z,75.90
2018-03-11T14:15:40.682Z,75.90
2018-03-11T14:18:08.785Z,75.50
2018-03-11T14:20:36.937Z,75.60
2018-03-11T14:23:05.813Z,75.40
2018-03-11T14:25:33.963Z,75.30
2018-03-11T14:28:02.091Z,75.30
2018-03-11T14:30:30.308Z,75.30
2018-03-11T14:32:58.427Z,75.20
2018-03-11T14:35:26.551Z,75.20
2018-03-11T14:37:54.922Z,75.20
2018-03-11T14:40:23.026Z,75.10
2018-03-11T14:42:51.137Z,75.00
2018-03-11T14:45:19.241Z,74.90
2018-03-11T14:47:47.360Z,74.80
2018-03-11T14:50:15.461Z,74.70
2018-03-11T14:52:43.583Z,74.80
2018-03-11T14:55:11.732Z,75.00
2018-03-11T14:57:39.950Z,75.20
2018-03-11T15:00:08.074Z,75.10
2018-03-11T15:02:36.260Z,76.00
2018-03-11T15:05:04.824Z,75.30
2018-03-11T15:07:33.018Z,75.20
2018-03-11T15:10:01.263Z,75.20
2018-03-11T15:12:29.412Z,75.50
2018-03-11T15:14:57.518Z,75.60
2018-03-11T15:17:25.690Z,75.60
2018-03-11T15:19:54.477Z,75.60
2018-03-11T15:22:22.577Z,75.60
2018-03-11T15:24:51.325Z,75.60
2018-03-11T15:27:20.221Z,75.70
2018-03-11T15:29:49.172Z,75.60
2018-03-11T15:32:17.531Z,75.60
2018-03-11T15:34:45.635Z,75.60
2018-03-11T15:37:13.765Z,75.60
2018-03-11T15:39:41.873Z,75.60
2018-03-11T15:42:09.999Z,75.60
2018-03-11T15:44:38.115Z,75.40
2018-03-11T15:47:06.255Z,75.50
2018-03-11T15:49:34.417Z,75.60
2018-03-11T15:52:02.532Z,75.80
2018-03-11T15:54:30.703Z,75.80
2018-03-11T15:56:58.922Z,75.90
2018-03-11T15:59:27.851Z,76.10
2018-03-11T16:01:56.295Z,75.90
2018-03-11T16:04:25.479Z,76.20
2018-03-11T16:06:53.590Z,76.20
2018-03-11T16:09:21.773Z,76.20
2018-03-11T16:11:49.917Z,76.50
2018-03-11T16:14:18.012Z,76.60
2018-03-11T16:16:46.132Z,76.70
2018-03-11T16:19:14.245Z,76.80
2018-03-11T16:21:42.372Z,76.90
2018-03-11T16:24:10.563Z,76.90
2018-03-11T16:26:38.701Z,77.00
2018-03-11T16:29:06.827Z,77.10
2018-03-11T16:31:34.954Z,77.10
2018-03-11T16:34:03.845Z,77.20
2018-03-11T16:36:31.990Z,77.20
2018-03-11T16:39:00.162Z,77.40
2018-03-11T16:41:28.288Z,77.40
2018-03-11T16:43:57.202Z,78.40
2018-03-11T16:46:25.305Z,77.50
2018-03-11T16:48:53.428Z,77.60
2018-03-11T16:51:21.583Z,77.60
2018-03-11T16:53:49.692Z,77.60
2018-03-11T16:56:17.890Z,77.60
2018-03-11T16:58:46.070Z,77.70
2018-03-11T17:01:14.287Z,77.80
2018-03-11T17:03:42.419Z,77.80
2018-03-11T17:06:10.536Z,77.70
2018-03-11T17:08:38.639Z,77.80
2018-03-11T17:11:06.776Z,77.80
2018-03-11T17:13:34.882Z,77.80
2018-03-11T17:16:02.971Z,77.70
2018-03-11T17:18:31.161Z,77.70
2018-03-11T17:20:59.627Z,77.80
2018-03-11T17:23:27.736Z,77.80
2018-03-11T17:25:55.858Z,77.90
2018-03-11T17:28:24.038Z,77.90
2018-03-11T17:30:52.250Z,78.00
2018-03-11T17:33:20.508Z,78.10
2018-03-11T17:35:48.740Z,78.10
2018-03-11T17:38:18.074Z,78.30
2018-03-11T17:40:46.185Z,78.20
2018-03-11T17:43:14.287Z,78.30
2018-03-11T17:45:42.421Z,78.30
2018-03-11T17:48:10.517Z,78.40
2018-03-11T17:50:38.620Z,78.50
2018-03-11T17:53:06.952Z,78.50
2018-03-11T17:55:35.087Z,78.40
2018-03-11T17:58:03.196Z,78.40
2018-03-11T18:00:31.320Z,78.60
2018-03-11T18:03:00.177Z,78.60
2018-03-11T18:05:29.069Z,78.70
2018-03-11T18:07:57.253Z,79.40
2018-03-11T18:10:25.362Z,78.70
2018-03-11T18:12:53.553Z,78.80
2018-03-11T18:15:21.738Z,78.90
2018-03-11T18:17:50.052Z,79.00
2018-03-11T18:20:18.206Z,79.00
2018-03-11T18:22:46.467Z,79.00
2018-03-11T18:25:14.707Z,79.20
2018-03-11T18:27:42.873Z,79.10
2018-03-11T18:30:11.114Z,79.30
2018-03-11T18:32:39.220Z,79.40
2018-03-11T18:35:07.433Z,79.30
2018-03-11T18:37:36.143Z,79.40
2018-03-11T18:40:04.558Z,79.40
2018-03-11T18:42:32.678Z,79.40
2018-03-11T18:45:01.246Z,79.40
2018-03-11T18:47:29.394Z,79.40
2018-03-11T18:49:57.566Z,79.50
2018-03-11T18:52:25.666Z,79.50
2018-03-11T18:54:53.810Z,79.50
2018-03-11T18:57:21.969Z,79.60
2018-03-11T18:59:50.112Z,79.60
2018-03-11T19:02:18.216Z,79.60
2018-03-11T19:04:46.360Z,79.50
2018-03-11T19:07:15.272Z,79.50
2018-03-11T19:09:47.989Z,79.50
2018-03-11T19:12:16.264Z,79.50
2018-03-11T19:14:44.566Z,79.60
2018-03-11T19:17:13.048Z,79.60
2018-03-11T19:19:41.152Z,79.60
2018-03-11T19:22:09.302Z,79.60
2018-03-11T19:24:37.540Z,79.60
2018-03-11T19:27:05.773Z,79.60
2018-03-11T19:29:33.932Z,79.70
2018-03-11T19:32:02.156Z,79.70
2018-03-11T19:34:30.382Z,79.70
2018-03-11T19:36:58.525Z,79.70
2018-03-11T19:39:27.166Z,79.70
2018-03-11T19:41:55.653Z,79.70
2018-03-11T19:44:30.750Z,80.00
2018-03-11T19:47:00.555Z,80.10
2018-03-11T19:49:28.801Z,80.10
2018-03-11T19:51:57.033Z,80.10
2018-03-11T19:54:25.929Z,80.10
2018-03-11T19:56:54.046Z,80.10
2018-03-11T19:59:22.181Z,81.20
2018-03-11T20:01:50.338Z,81.30
2018-03-11T20:04:18.480Z,81.30
2018-03-11T20:06:46.607Z,81.30
2018-03-11T20:09:14.891Z,81.50
2018-03-11T20:11:43.004Z,81.60
2018-03-11T20:14:11.131Z,81.90
2018-03-11T20:16:39.286Z,82.00
2018-03-11T20:19:07.476Z,81.90
2018-03-11T20:21:35.598Z,81.90
2018-03-11T20:24:03.705Z,81.90
2018-03-11T20:26:31.825Z,82.50
2018-03-11T20:28:59.921Z,81.80
2018-03-11T20:31:28.032Z,81.70
2018-03-11T20:33:56.280Z,81.80
2018-03-11T20:36:24.472Z,81.80
2018-03-11T20:38:52.618Z,81.80
2018-03-11T20:41:20.739Z,81.90
2018-03-11T20:43:48.900Z,82.50
2018-03-11T20:46:17.048Z,82.90
2018-03-11T20:48:45.136Z,83.20
2018-03-11T20:51:13.241Z,83.40
2018-03-11T20:53:41.355Z,83.60
2018-03-11T20:56:09.465Z,82.50
2018-03-11T20:58:37.702Z,82.70
2018-03-11T21:01:05.822Z,82.50
2018-03-11T21:03:33.950Z,82.60
2018-03-11T21:06:02.063Z,82.60
2018-03-11T21:08:30.184Z,82.50
2018-03-11T21:10:58.294Z,82.50
2018-03-11T21:13:27.422Z,82.50
2018-03-11T21:16:00.714Z,82.50
2018-03-11T21:18:28.825Z,82.30
2018-03-11T21:20:56.980Z,82.50
2018-03-11T21:23:25.185Z,82.50
2018-03-11T21:25:53.324Z,82.60
2018-03-11T21:28:21.441Z,82.60
2018-03-11T21:30:50.343Z,82.80
2018-03-11T21:33:18.487Z,82.50
2018-03-11T21:35:46.686Z,82.50
2018-03-11T21:38:15.587Z,82.50
2018-03-11T21:40:43.695Z,82.50
2018-03-11T21:43:11.846Z,82.50
2018-03-11T21:45:39.945Z,82.50
2018-03-11T21:48:08.078Z,82.60
2018-03-11T21:50:36.202Z,82.60
2018-03-11T21:53:04.316Z,82.60
2018-03-11T21:55:32.419Z,82.50
2018-03-11T21:58:00.588Z,82.60
2018-03-11T22:00:32.918Z,82.50
2018-03-11T22:03:01.012Z,82.50
2018-03-11T22:05:29.248Z,82.50
2018-03-11T22:07:57.728Z,82.50
2018-03-11T22:10:25.889Z,82.60
2018-03-11T22:12:53.992Z,82.60
2018-03-11T22:15:22.156Z,82.50
2018-03-11T22:17:50.530Z,82.60
2018-03-11T22:20:18.741Z,82.60
2018-03-11T22:22:46.960Z,82.60
2018-03-11T22:25:15.191Z,82.50
2018-03-11T22:27:43.421Z,82.60
2018-03-11T22:30:11.572Z,82.60
2018-03-11T22:32:39.689Z,82.50
2018-03-11T22:35:07.855Z,82.50
2018-03-11T22:37:35.949Z,82.60
2018-03-11T22:40:04.055Z,82.50
2018-03-11T22:42:32.171Z,82.60
2018-03-11T22:45:00.740Z,82.50
2018-03-11T22:47:28.829Z,82.60
2018-03-11T22:49:57.023Z,82.60
2018-03-11T22:52:25.902Z,82.60
2018-03-11T22:54:54.076Z,82.60
2018-03-11T22:57:22.177Z,82.50
2018-03-11T22:59:50.334Z,82.70
2018-03-11T23:02:18.640Z,82.80
2018-03-11T23:04:46.743Z,82.90
2018-03-11T23:07:14.843Z,82.80
2018-03-11T23:09:42.932Z,82.90
2018-03-11T23:12:11.046Z,82.80
2018-03-11T23:14:39.157Z,82.90
2018-03-11T23:17:07.414Z,82.90
2018-03-11T23:19:35.580Z,82.90
2018-03-11T23:22:03.792Z,83.00
2018-03-11T23:24:32.674Z,83.10
2018-03-11T23:27:00.774Z,83.10
2018-03-11T23:29:28.906Z,83.00
2018-03-11T23:31:57.022Z,83.10
2018-03-11T23:34:25.258Z,83.10
2018-03-11T23:36:53.370Z,83.20
2018-03-11T23:39:21.466Z,83.20
2018-03-11T23:41:49.589Z,83.20
2018-03-11T23:44:18.524Z,83.40
2018-03-11T23:46:46.650Z,83.40
2018-03-11T23:49:14.763Z,83.30
2018-03-11T23:51:43.833Z,83.40
2018-03-11T23:54:11.973Z,83.60
2018-03-11T23:56:40.161Z,83.60
2018-03-11T23:59:08.296Z,83.60
